Time;durP1;ratioP1;P1;durP2;ratioP2;P2;SDS_P1;SDS_P2;PMS_P1;PMS_P2;Temp;Humidity;BMP_temperature;BMP_pressure;BME280_temperature;BME280_humidity;BME280_pressure;Samples;Min_cycle;Max_cycle;Signal;HPM_P1;HPM_P2
2023/04/30 00:09:12;;;;;;;;;;;;;;;10.57;100.00;97887.16;18562018;32;19952;-56
2023/04/30 00:19:14;;;;;;;;;;;;;;;10.13;100.00;97880.19;18561481;32;19956;-56
2023/04/30 00:29:16;;;;;;;;;;;;;;;9.82;100.00;97877.28;18561361;32;19953;-56
2023/04/30 00:39:19;;;;;;;;;;;;;;;9.61;100.00;97862.03;18560704;32;19956;-56
2023/04/30 00:49:21;;;;;;;;;;;;;;;9.43;100.00;97861.34;18560578;32;20042;-56
2023/04/30 00:59:24;;;;;;;;;;;;;;;9.20;100.00;97848.22;18560384;32;19970;-56
2023/04/30 01:09:27;;;;;;;;;;;;;;;8.96;100.00;97835.03;18569562;32;19952;-55
2023/04/30 01:19:42;;;;;;;;;;;;;;;8.79;100.00;97830.56;18571744;31;19981;-56
2023/04/30 01:29:44;;;;;;;;;;;;;;;8.62;100.00;97817.19;18571641;32;20376;-55
2023/04/30 01:39:55;;;;;;;;;;;;;;;8.40;100.00;97821.75;18570791;32;19959;-56
2023/04/30 01:50:10;;;;;;;;;;;;;;;8.36;100.00;97810.69;18570378;32;19957;-55
2023/04/30 02:00:13;;;;;;;;;;;;;;;8.51;100.00;97820.00;18569518;32;19949;-56
2023/04/30 02:10:17;;;;;;;;;;;;;;;8.75;100.00;97818.66;18569508;32;19990;-55
2023/04/30 02:20:19;;;;;;;;;;;;;;;8.91;100.00;97819.63;18567872;32;19957;-55
2023/04/30 02:30:22;;;;;;;;;;;;;;;9.07;100.00;97819.75;18567437;31;19967;-55
2023/04/30 02:40:25;;;;;;;;;;;;;;;9.12;100.00;97809.03;18553185;32;19952;-56
2023/04/30 02:50:27;;;;;;;;;;;;;;;9.22;100.00;97814.47;18566390;32;19960;-55
2023/04/30 03:00:29;;;;;;;;;;;;;;;9.37;100.00;97813.00;18565823;32;19949;-56
2023/04/30 03:10:31;;;;;;;;;;;;;;;9.40;100.00;97810.59;18565145;32;19982;-56
2023/04/30 03:20:33;;;;;;;;;;;;;;;9.49;100.00;97816.31;18564488;32;19952;-56
2023/04/30 03:30:36;;;;;;;;;;;;;;;9.58;100.00;97817.47;18563308;31;19987;-57
2023/04/30 03:40:38;;;;;;;;;;;;;;;9.64;100.00;97816.41;18563520;32;19967;-57
2023/04/30 03:50:40;;;;;;;;;;;;;;;9.66;100.00;97808.03;18563043;32;20283;-56
2023/04/30 04:00:44;;;;;;;;;;;;;;;9.76;100.00;97810.81;18562252;32;19953;-56
2023/04/30 04:10:46;;;;;;;;;;;;;;;9.77;100.00;97815.16;18561862;32;19960;-56
2023/04/30 04:20:49;;;;;;;;;;;;;;;9.80;100.00;97809.22;18561522;32;20329;-56
2023/04/30 04:30:52;;;;;;;;;;;;;;;9.83;100.00;97808.69;18561065;31;19952;-56
2023/04/30 04:40:55;;;;;;;;;;;;;;;9.89;100.00;97811.44;18566240;32;19961;-56
2023/04/30 04:50:57;;;;;;;;;;;;;;;9.90;100.00;97802.25;18573804;32;19968;-56
2023/04/30 05:01:00;;;;;;;;;;;;;;;9.99;100.00;97809.59;18573128;31;19959;-57
2023/04/30 05:11:02;;;;;;;;;;;;;;;10.12;100.00;97808.28;18572520;32;20001;-56
2023/04/30 05:21:05;;;;;;;;;;;;;;;10.29;100.00;97804.56;18572299;32;20380;-56
2023/04/30 05:31:07;;;;;;;;;;;;;;;10.53;100.00;97813.06;18531609;31;19971;-56
2023/04/30 05:41:12;;;;;;;;;;;;;;;10.71;100.00;97811.75;18570725;32;20316;-57
2023/04/30 05:51:14;;;;;;;;;;;;;;;10.84;100.00;97808.56;18569380;31;19988;-56
2023/04/30 06:01:18;;;;;;;;;;;;;;;10.98;100.00;97805.31;18569879;32;19956;-56
2023/04/30 06:11:20;;;;;;;;;;;;;;;11.32;100.00;97811.03;18555045;32;19957;-57
2023/04/30 06:21:25;;;;;;;;;;;;;;;11.68;100.00;97802.03;18568111;32;19993;-57
2023/04/30 06:31:28;;;;;;;;;;;;;;;11.95;100.00;97809.03;18567483;31;19988;-56
2023/04/30 06:41:30;;;;;;;;;;;;;;;12.23;100.00;97796.75;18567073;32;20400;-56
2023/04/30 06:51:32;;;;;;;;;;;;;;;12.35;100.00;97805.37;18552134;31;19965;-55
2023/04/30 07:01:35;;;;;;;;;;;;;;;12.51;100.00;97803.41;18564922;32;19944;-55
2023/04/30 07:11:37;;;;;;;;;;;;;;;12.83;100.00;97802.12;18565086;32;19949;-56
2023/04/30 07:21:39;;;;;;;;;;;;;;;13.65;100.00;97802.56;18563998;32;19949;-57
2023/04/30 07:31:41;;;;;;;;;;;;;;;14.05;100.00;97804.06;18563742;31;20008;-56
2023/04/30 07:41:44;;;;;;;;;;;;;;;14.35;100.00;97810.25;18563379;32;20028;-56
2023/04/30 07:51:46;;;;;;;;;;;;;;;14.52;100.00;97822.56;18562468;32;19972;-55
2023/04/30 08:01:50;;;;;;;;;;;;;;;14.89;100.00;97824.50;18548351;32;19949;-56
2023/04/30 08:11:52;;;;;;;;;;;;;;;15.13;100.00;97823.63;18561583;32;19968;-57
2023/04/30 08:21:54;;;;;;;;;;;;;;;15.70;100.00;97828.94;18560880;32;20330;-57
2023/04/30 08:32:01;;;;;;;;;;;;;;;15.75;100.00;97822.63;18547206;31;19961;-57
2023/04/30 08:42:07;;;;;;;;;;;;;;;15.79;100.00;97811.91;18560432;32;19952;-57
2023/04/30 08:52:10;;;;;;;;;;;;;;;15.83;100.00;97802.88;18546343;32;20024;-57
2023/04/30 09:02:13;;;;;;;;;;;;;;;15.82;100.00;97801.25;18532740;32;19973;-57
2023/04/30 09:12:19;;;;;;;;;;;;;;;15.91;100.00;97815.81;18559281;32;20004;-57
2023/04/30 09:22:22;;;;;;;;;;;;;;;16.64;100.00;97800.72;18545160;32;20336;-57
2023/04/30 09:32:25;;;;;;;;;;;;;;;16.76;94.86;97798.25;18569708;31;19968;-57
2023/04/30 09:42:27;;;;;;;;;;;;;;;17.44;93.02;97798.31;18570451;32;19964;-57
2023/04/30 09:52:30;;;;;;;;;;;;;;;18.12;83.92;97795.47;18570112;32;20337;-57
2023/04/30 10:02:33;;;;;;;;;;;;;;;18.56;76.04;97795.59;18569136;32;19964;-57
2023/04/30 10:12:43;;;;;;;;;;;;;;;18.55;81.06;97796.72;18554839;32;19964;-58
2023/04/30 10:22:46;;;;;;;;;;;;;;;18.07;85.42;97787.41;18568337;32;20003;-57
2023/04/30 10:32:56;;;;;;;;;;;;;;;18.47;84.48;97773.66;18567140;31;19983;-58
2023/04/30 10:42:58;;;;;;;;;;;;;;;18.94;73.40;97771.16;18567072;32;20016;-58
2023/04/30 10:53:02;;;;;;;;;;;;;;;19.23;74.65;97769.69;18566588;32;20376;-57
2023/04/30 11:03:05;;;;;;;;;;;;;;;19.61;64.41;97755.25;18551788;32;20238;-58
2023/04/30 11:13:09;;;;;;;;;;;;;;;19.71;79.02;97743.13;18565071;32;19996;-58
2023/04/30 11:23:16;;;;;;;;;;;;;;;20.20;79.90;97742.75;18549874;32;19956;-58
2023/04/30 11:33:34;;;;;;;;;;;;;;;19.60;67.85;97734.44;18563222;31;20000;-58
2023/04/30 11:43:36;;;;;;;;;;;;;;;19.13;75.72;97734.41;18548605;32;20348;-58
2023/04/30 11:53:39;;;;;;;;;;;;;;;19.35;74.42;97735.31;18548357;32;19982;-58
2023/04/30 12:03:41;;;;;;;;;;;;;;;18.87;69.68;97724.25;18562187;32;19960;-58
2023/04/30 12:13:49;;;;;;;;;;;;;;;18.63;74.60;97717.28;18561360;31;19949;-58
2023/04/30 12:23:52;;;;;;;;;;;;;;;19.30;70.80;97701.44;18561334;32;20008;-57
2023/04/30 12:33:55;;;;;;;;;;;;;;;19.88;71.43;97709.34;18560412;31;20290;-58
2023/04/30 12:44:14;;;;;;;;;;;;;;;20.60;57.24;97714.06;18560421;32;20009;-57
2023/04/30 12:54:25;;;;;;;;;;;;;;;21.24;59.55;97712.88;18560146;32;19971;-57
2023/04/30 13:04:29;;;;;;;;;;;;;;;21.03;52.86;97712.13;18568544;32;19992;-57
2023/04/30 13:14:33;;;;;;;;;;;;;;;20.21;56.99;97708.66;18558011;32;19953;-57
2023/04/30 13:24:36;;;;;;;;;;;;;;;20.29;58.68;97702.31;18557472;32;19957;-57
2023/04/30 13:34:38;;;;;;;;;;;;;;;19.66;58.56;97688.44;18570877;31;19956;-57
2023/04/30 13:44:41;;;;;;;;;;;;;;;19.25;65.13;97679.72;18570648;32;19960;-57
2023/04/30 13:54:45;;;;;;;;;;;;;;;19.56;65.64;97667.66;18555739;32;20302;-57
2023/04/30 14:04:48;;;;;;;;;;;;;;;19.79;59.18;97670.94;18554657;31;19960;-57
2023/04/30 14:15:07;;;;;;;;;;;;;;;20.01;59.59;97663.59;18568598;32;20332;-58
2023/04/30 14:25:09;;;;;;;;;;;;;;;19.49;58.21;97653.66;18568014;32;20033;-55
2023/04/30 14:35:14;;;;;;;;;;;;;;;19.07;64.40;97648.78;18567163;31;19948;-57
2023/04/30 14:45:16;;;;;;;;;;;;;;;18.96;68.78;97640.09;18566998;32;19953;-57
2023/04/30 14:55:19;;;;;;;;;;;;;;;18.54;65.20;97648.06;18566642;32;20242;-56
2023/04/30 15:05:22;;;;;;;;;;;;;;;17.94;70.25;97644.94;18565730;32;19964;-57
2023/04/30 15:15:27;;;;;;;;;;;;;;;17.68;73.35;97635.81;18537790;32;19949;-57
2023/04/30 15:25:31;;;;;;;;;;;;;;;17.51;72.31;97633.84;18563783;32;20268;-56
2023/04/30 15:35:33;;;;;;;;;;;;;;;17.41;79.74;97632.22;18564040;31;19967;-56
2023/04/30 15:45:36;;;;;;;;;;;;;;;17.35;91.39;97626.09;18563039;32;19948;-57
2023/04/30 15:55:39;;;;;;;;;;;;;;;17.22;99.09;97635.19;18562608;31;19960;-56
2023/04/30 16:05:41;;;;;;;;;;;;;;;17.18;84.92;97629.53;18562197;32;19961;-54
2023/04/30 16:15:43;;;;;;;;;;;;;;;17.29;92.00;97624.59;18561939;32;20036;-56
2023/04/30 16:25:46;;;;;;;;;;;;;;;17.48;100.00;97634.50;18561410;32;19953;-57
2023/04/30 16:35:48;;;;;;;;;;;;;;;17.36;83.42;97646.00;18569313;32;19992;-56
2023/04/30 16:45:51;;;;;;;;;;;;;;;17.03;82.05;97632.69;18582291;31;19998;-56
2023/04/30 16:55:54;;;;;;;;;;;;;;;16.74;93.59;97633.94;18568424;32;20000;-56
2023/04/30 17:05:56;;;;;;;;;;;;;;;16.53;100.00;97628.19;18581748;32;19961;-56
2023/04/30 17:16:01;;;;;;;;;;;;;;;16.32;100.00;97630.56;18581491;32;19949;-55
2023/04/30 17:26:04;;;;;;;;;;;;;;;16.13;100.00;97634.28;18581422;32;20011;-55
2023/04/30 17:36:11;;;;;;;;;;;;;;;15.99;100.00;97636.22;18566840;32;20020;-56
2023/04/30 17:46:14;;;;;;;;;;;;;;;15.80;100.00;97641.78;18562868;32;19992;-56
2023/04/30 17:56:16;;;;;;;;;;;;;;;15.64;100.00;97644.81;18570086;32;19967;-57
2023/04/30 18:06:19;;;;;;;;;;;;;;;15.48;100.00;97640.78;18569503;32;19960;-57
2023/04/30 18:16:22;;;;;;;;;;;;;;;15.31;99.54;97638.66;18554827;32;19948;-56
2023/04/30 18:26:24;;;;;;;;;;;;;;;15.19;95.41;97642.66;18568396;32;19975;-57
2023/04/30 18:36:27;;;;;;;;;;;;;;;14.99;98.96;97649.31;18567249;32;19953;-57
2023/04/30 18:46:30;;;;;;;;;;;;;;;14.74;100.00;97642.38;18567694;32;20351;-57
2023/04/30 18:56:32;;;;;;;;;;;;;;;14.47;100.00;97641.16;18551567;32;20011;-57
2023/04/30 19:06:34;;;;;;;;;;;;;;;14.19;100.00;97643.72;18566187;32;19960;-57
2023/04/30 19:16:37;;;;;;;;;;;;;;;13.98;100.00;97658.72;18550650;32;19961;-56
2023/04/30 19:26:41;;;;;;;;;;;;;;;13.73;100.00;97666.09;18564455;32;19957;-57
2023/04/30 19:36:43;;;;;;;;;;;;;;;13.60;100.00;97677.69;18563531;32;20004;-56
2023/04/30 19:46:46;;;;;;;;;;;;;;;13.45;100.00;97684.87;18563400;32;20243;-56
2023/04/30 19:56:51;;;;;;;;;;;;;;;13.31;100.00;97692.88;18563518;32;20305;-56
2023/04/30 20:06:56;;;;;;;;;;;;;;;13.15;100.00;97681.34;18562773;32;20039;-56
2023/04/30 20:16:58;;;;;;;;;;;;;;;12.92;100.00;97693.78;18561947;32;20348;-57
2023/04/30 20:27:00;;;;;;;;;;;;;;;12.72;100.00;97692.06;18561428;32;19961;-56
2023/04/30 20:37:04;;;;;;;;;;;;;;;12.54;100.00;97688.94;18546658;32;19960;-57
2023/04/30 20:47:08;;;;;;;;;;;;;;;12.37;100.00;97680.38;18561183;32;19952;-57
2023/04/30 20:57:10;;;;;;;;;;;;;;;12.21;100.00;97685.09;18546826;32;19981;-56
2023/04/30 21:07:13;;;;;;;;;;;;;;;12.06;100.00;97687.88;18560392;32;19960;-56
2023/04/30 21:17:16;;;;;;;;;;;;;;;11.89;100.00;97677.34;18559782;31;19949;-55
2023/04/30 21:27:18;;;;;;;;;;;;;;;11.80;100.00;97675.22;18569792;32;19971;-57
2023/04/30 21:37:21;;;;;;;;;;;;;;;11.76;100.00;97668.75;18571110;32;20407;-56
2023/04/30 21:47:23;;;;;;;;;;;;;;;11.70;100.00;97665.25;18570966;32;19961;-56
2023/04/30 21:57:25;;;;;;;;;;;;;;;11.66;100.00;97664.19;18556180;32;19948;-57
2023/04/30 22:07:28;;;;;;;;;;;;;;;11.63;100.00;97669.34;18569648;32;20013;-56
2023/04/30 22:17:31;;;;;;;;;;;;;;;11.59;100.00;97668.28;18554317;32;20347;-56
2023/04/30 22:27:33;;;;;;;;;;;;;;;11.50;100.00;97663.44;18568504;32;19964;-56
2023/04/30 22:37:38;;;;;;;;;;;;;;;11.46;100.00;97659.66;18567315;32;19971;-56
2023/04/30 22:47:41;;;;;;;;;;;;;;;11.42;100.00;97655.88;18567283;32;19956;-56
2023/04/30 22:57:43;;;;;;;;;;;;;;;11.35;100.00;97642.62;18566908;32;19986;-56
2023/04/30 23:07:48;;;;;;;;;;;;;;;11.34;100.00;97654.53;18551171;32;19993;-56
2023/04/30 23:17:53;;;;;;;;;;;;;;;11.31;100.00;97643.47;18551276;32;19975;-56
2023/04/30 23:27:55;;;;;;;;;;;;;;;11.29;100.00;97646.44;18564958;32;19985;-54
2023/04/30 23:37:57;;;;;;;;;;;;;;;11.28;100.00;97641.31;18563555;32;20379;-56
2023/04/30 23:47:59;;;;;;;;;;;;;;;11.26;100.00;97643.47;18563170;32;19956;-56
2023/04/30 23:58:02;;;;;;;;;;;;;;;11.24;100.00;97645.66;18562975;32;20272;-56
